createdAt,value
2022-10-13T00:00:49.625Z,101830.50
2022-10-13T00:03:17.201Z,101836.75
2022-10-13T00:05:49.102Z,101835.06
2022-10-13T00:08:19.840Z,101838.63
2022-10-13T00:10:48.859Z,101836.75
2022-10-13T00:13:16.533Z,101840.66
2022-10-13T00:15:45.787Z,101830.84
2022-10-13T00:18:13.173Z,101829.00
2022-10-13T00:20:45.971Z,101834.06
2022-10-13T00:23:13.985Z,101825.28
2022-10-13T00:25:43.147Z,101825.28
2022-10-13T00:28:10.347Z,101831.69
2022-10-13T00:30:37.856Z,101828.66
2022-10-13T00:33:05.214Z,101827.97
2022-10-13T00:35:32.077Z,101830.84
2022-10-13T00:37:58.713Z,101818.00
2022-10-13T00:40:25.510Z,101821.38
2022-10-13T00:42:52.088Z,101816.97
2022-10-13T00:45:25.554Z,101818.66
2022-10-13T00:47:56.905Z,101816.81
2022-10-13T00:50:31.992Z,101818.66
2022-10-13T00:53:01.210Z,101818.00
2022-10-13T00:55:31.973Z,101810.72
2022-10-13T00:58:05.182Z,101810.91
2022-10-13T01:00:34.164Z,101810.06
2022-10-13T01:03:02.142Z,101810.72
2022-10-13T01:05:29.848Z,101806.31
2022-10-13T01:07:57.337Z,101802.09
2022-10-13T01:10:45.474Z,101808.19
2022-10-13T01:13:31.248Z,101807.66
2022-10-13T01:16:09.492Z,101814.09
2022-10-13T01:19:02.000Z,101810.38
2022-10-13T01:21:40.647Z,101811.22
2022-10-13T01:24:25.433Z,101804.28
2022-10-13T01:27:14.839Z,101794.47
2022-10-13T01:30:16.677Z,101791.94
2022-10-13T01:32:52.316Z,101794.47
2022-10-13T01:35:24.070Z,101799.56
2022-10-13T01:38:20.295Z,101794.13
2022-10-13T01:41:10.622Z,101791.97
2022-10-13T01:43:52.089Z,101790.25
2022-10-13T01:46:22.030Z,101790.94
2022-10-13T01:48:51.722Z,101779.09
2022-10-13T01:51:21.119Z,101771.81
2022-10-13T01:53:49.127Z,101782.66
2022-10-13T01:56:16.256Z,101778.44
2022-10-13T01:58:43.403Z,101769.63
2022-10-13T02:01:13.021Z,101765.22
2022-10-13T02:03:59.797Z,101771.63
2022-10-13T02:06:32.815Z,101776.56
2022-10-13T02:09:12.149Z,101763.88
2022-10-13T02:11:46.650Z,101758.47
2022-10-13T02:14:19.767Z,101763.22
2022-10-13T02:16:49.277Z,101757.94
2022-10-13T02:19:18.339Z,101755.41
2022-10-13T02:21:46.463Z,101760.81
2022-10-13T02:24:13.785Z,101754.56
2022-10-13T02:26:41.716Z,101752.88
2022-10-13T02:29:15.333Z,101750.16
2022-10-13T02:31:43.845Z,101752.03
2022-10-13T02:34:10.624Z,101754.06
2022-10-13T02:36:38.336Z,101743.25
2022-10-13T02:39:11.008Z,101751.34
2022-10-13T02:41:37.925Z,101745.28
2022-10-13T02:44:05.081Z,101745.28
2022-10-13T02:46:31.808Z,101745.28
2022-10-13T02:48:58.393Z,101739.88
2022-10-13T02:51:25.015Z,101741.56
2022-10-13T02:53:51.569Z,101746.13
2022-10-13T02:56:19.232Z,101758.97
2022-10-13T02:58:45.853Z,101738.34
2022-10-13T03:01:14.357Z,101746.47
2022-10-13T03:03:41.355Z,101741.19
2022-10-13T03:06:08.328Z,101735.66
2022-10-13T03:08:35.565Z,101733.44
2022-10-13T03:11:02.554Z,101731.41
2022-10-13T03:13:29.425Z,101732.41
2022-10-13T03:15:55.977Z,101730.56
2022-10-13T03:18:22.538Z,101725.13
2022-10-13T03:20:57.241Z,101720.56
2022-10-13T03:23:23.920Z,101716.34
2022-10-13T03:25:50.520Z,101719.22
2022-10-13T03:28:17.265Z,101712.13
2022-10-13T03:30:43.847Z,101710.09
2022-10-13T03:33:10.768Z,101701.13
2022-10-13T03:35:37.328Z,101708.41
2022-10-13T03:38:03.971Z,101716.53
2022-10-13T03:40:30.716Z,101719.41
2022-10-13T03:42:57.281Z,101706.72
2022-10-13T03:45:23.905Z,101712.97
2022-10-13T03:47:50.469Z,101707.56
2022-10-13T03:50:17.059Z,101708.59
2022-10-13T03:52:43.629Z,101699.63
2022-10-13T03:55:10.406Z,101704.38
2022-10-13T03:57:36.968Z,101701.66
2022-10-13T04:00:04.115Z,101707.06
2022-10-13T04:02:30.707Z,101698.97
2022-10-13T04:04:57.257Z,101697.09
2022-10-13T04:07:23.820Z,101699.97
2022-10-13T04:09:50.375Z,101687.13
2022-10-13T04:12:20.584Z,101694.56
2022-10-13T04:14:47.852Z,101692.84
2022-10-13T04:17:14.409Z,101685.44
2022-10-13T04:19:40.971Z,101680.03
2022-10-13T04:22:07.538Z,101670.22
2022-10-13T04:24:34.746Z,101671.22
2022-10-13T04:27:01.312Z,101672.94
2022-10-13T04:29:27.912Z,101681.88
2022-10-13T04:31:54.468Z,101678.34
2022-10-13T04:34:21.109Z,101680.34
2022-10-13T04:36:50.512Z,101685.06
2022-10-13T04:39:18.218Z,101686.75
2022-10-13T04:41:44.771Z,101684.06
2022-10-13T04:44:11.377Z,101681.53
2022-10-13T04:46:37.923Z,101677.97
2022-10-13T04:49:04.870Z,101679.50
2022-10-13T04:51:31.459Z,101671.38
2022-10-13T04:54:01.098Z,101672.22
2022-10-13T04:56:28.203Z,101668.50
2022-10-13T04:58:55.026Z,101664.97
2022-10-13T05:01:23.933Z,101659.72
2022-10-13T05:03:55.002Z,101657.84
2022-10-13T05:06:24.955Z,101653.28
2022-10-13T05:08:51.543Z,101654.31
2022-10-13T05:11:20.499Z,101650.59
2022-10-13T05:13:48.125Z,101656.84
2022-10-13T05:16:16.420Z,101647.88
2022-10-13T05:18:43.507Z,101653.28
2022-10-13T05:21:12.444Z,101643.31
2022-10-13T05:23:39.835Z,101648.72
2022-10-13T05:26:11.831Z,101645.88
2022-10-13T05:28:38.830Z,101650.44
2022-10-13T05:31:09.516Z,101646.72
2022-10-13T05:33:36.405Z,101644.16
2022-10-13T05:36:05.343Z,101645.88
2022-10-13T05:38:31.908Z,101645.88
2022-10-13T05:41:06.048Z,101651.28
2022-10-13T05:43:33.489Z,101651.59
2022-10-13T05:46:01.250Z,101644.50
2022-10-13T05:48:28.559Z,101647.03
2022-10-13T05:50:57.326Z,101653.66
2022-10-13T05:53:26.106Z,101658.03
2022-10-13T05:55:54.464Z,101646.88
2022-10-13T05:58:22.296Z,101650.91
2022-10-13T06:00:49.453Z,101654.94
2022-10-13T06:03:21.400Z,101655.94
2022-10-13T06:05:48.455Z,101665.22
2022-10-13T06:08:16.023Z,101665.75
2022-10-13T06:10:43.662Z,101663.72
2022-10-13T06:13:10.308Z,101661.69
2022-10-13T06:15:36.897Z,101662.03
2022-10-13T06:18:08.209Z,101658.13
2022-10-13T06:20:34.815Z,101656.13
2022-10-13T06:23:01.492Z,101650.91
2022-10-13T06:25:29.367Z,101662.88
2022-10-13T06:28:00.550Z,101653.78
2022-10-13T06:30:27.463Z,101656.81
2022-10-13T06:32:58.305Z,101653.44
2022-10-13T06:35:25.059Z,101654.63
2022-10-13T06:37:53.146Z,101653.59
2022-10-13T06:40:19.804Z,101647.34
2022-10-13T06:42:50.198Z,101654.63
2022-10-13T06:45:17.437Z,101659.38
2022-10-13T06:47:44.064Z,101652.09
2022-10-13T06:50:10.851Z,101656.00
2022-10-13T06:52:38.198Z,101665.28
2022-10-13T06:55:05.952Z,101666.13
2022-10-13T06:57:32.569Z,101656.50
2022-10-13T06:59:59.106Z,101663.75
2022-10-13T07:02:25.695Z,101660.88
2022-10-13T07:04:52.563Z,101652.28
2022-10-13T07:07:19.485Z,101645.66
2022-10-13T07:09:46.050Z,101648.38
2022-10-13T07:12:14.144Z,101656.31
2022-10-13T07:14:43.707Z,101649.03
2022-10-13T07:17:10.656Z,101648.03
2022-10-13T07:19:37.233Z,101652.22
2022-10-13T07:22:03.798Z,101638.72
2022-10-13T07:24:30.648Z,101644.78
2022-10-13T07:26:57.249Z,101646.81
2022-10-13T07:29:23.880Z,101645.81
2022-10-13T07:31:51.075Z,101635.50
2022-10-13T07:34:17.675Z,101641.41
2022-10-13T07:36:44.220Z,101634.97
2022-10-13T07:39:11.117Z,101627.34
2022-10-13T07:41:37.668Z,101627.81
2022-10-13T07:44:04.381Z,101623.53
2022-10-13T07:46:30.938Z,101619.59
2022-10-13T07:48:57.528Z,101614.44
2022-10-13T07:51:24.132Z,101608.34
2022-10-13T07:53:50.815Z,101603.94
2022-10-13T07:56:17.368Z,101605.38
2022-10-13T07:58:46.268Z,101601.53
2022-10-13T08:01:14.198Z,101601.53
2022-10-13T08:03:44.159Z,101602.28
2022-10-13T08:06:14.441Z,101603.22
2022-10-13T08:08:41.027Z,101604.38
2022-10-13T08:11:14.632Z,101603.22
2022-10-13T08:13:45.949Z,101599.66
2022-10-13T08:16:12.516Z,101601.78
2022-10-13T08:18:39.099Z,101602.63
2022-10-13T08:23:52.469Z,101602.63
2022-10-13T08:26:27.447Z,101595.44
2022-10-13T08:31:41.831Z,101598.72
2022-10-13T08:34:09.318Z,101592.63
2022-10-13T08:36:37.106Z,101578.09
2022-10-13T08:39:04.110Z,101585.97
2022-10-13T08:41:35.915Z,101574.38
2022-10-13T08:44:56.771Z,101578.28
2022-10-13T08:47:09.037Z,101573.28
2022-10-13T08:49:35.822Z,101570.91
2022-10-13T08:52:05.902Z,101568.75
2022-10-13T08:54:33.254Z,101576.41
2022-10-13T08:59:27.727Z,101576.28
2022-10-13T09:01:55.624Z,101582.00
2022-10-13T09:04:36.374Z,101583.16
2022-10-13T09:07:15.743Z,101585.16
2022-10-13T09:09:42.488Z,101582.31
2022-10-13T09:12:12.463Z,101581.84
2022-10-13T09:14:41.302Z,101583.56
2022-10-13T09:17:25.004Z,101588.31
2022-10-13T09:20:17.997Z,101590.16
2022-10-13T09:22:45.813Z,101587.44
2022-10-13T09:25:15.373Z,101580.34
2022-10-13T09:27:44.742Z,101583.50
2022-10-13T09:30:42.136Z,101573.63
2022-10-13T09:33:08.993Z,101577.63
2022-10-13T09:36:00.527Z,101579.66
2022-10-13T09:38:27.497Z,101586.59
2022-10-13T09:41:00.215Z,101580.50
2022-10-13T09:43:54.233Z,101576.41
2022-10-13T09:46:28.501Z,101573.28
2022-10-13T09:48:58.733Z,101577.78
2022-10-13T09:51:39.004Z,101578.09
2022-10-13T09:54:07.302Z,101570.06
2022-10-13T09:56:46.314Z,101566.66
2022-10-13T09:59:22.020Z,101571.09
2022-10-13T10:01:51.043Z,101564.63
2022-10-13T10:04:25.989Z,101560.66
2022-10-13T10:06:52.829Z,101552.59
2022-10-13T10:09:28.492Z,101548.06
2022-10-13T10:11:58.850Z,101542.66
2022-10-13T10:14:38.149Z,101548.06
2022-10-13T10:17:15.093Z,101543.34
2022-10-13T10:20:12.583Z,101536.22
2022-10-13T10:22:54.403Z,101537.94
2022-10-13T10:25:20.942Z,101538.59
2022-10-13T10:28:23.472Z,101532.50
2022-10-13T10:31:15.198Z,101537.06
2022-10-13T10:33:53.900Z,101543.13
2022-10-13T10:36:28.417Z,101541.59
2022-10-13T10:39:01.412Z,101540.09
2022-10-13T10:41:48.804Z,101537.66
2022-10-13T10:44:21.421Z,101538.69
2022-10-13T10:46:49.836Z,101537.06
2022-10-13T10:49:28.320Z,101531.78
2022-10-13T10:51:55.200Z,101530.09
2022-10-13T10:54:48.220Z,101533.66
2022-10-13T10:57:29.403Z,101528.91
2022-10-13T11:00:17.204Z,101527.25
2022-10-13T11:03:07.934Z,101515.94
2022-10-13T11:06:04.431Z,101514.41
2022-10-13T11:09:00.805Z,101514.91
2022-10-13T11:11:33.437Z,101508.72
2022-10-13T11:14:26.864Z,101494.69
2022-10-13T11:17:05.203Z,101498.06
2022-10-13T11:19:34.857Z,101488.22
2022-10-13T11:22:01.378Z,101491.06
2022-10-13T11:24:34.076Z,101479.34
2022-10-13T11:27:28.272Z,101477.28
2022-10-13T11:29:59.805Z,101478.38
2022-10-13T11:32:46.567Z,101461.97
2022-10-13T11:35:23.900Z,101468.72
2022-10-13T11:38:13.906Z,101458.72
2022-10-13T11:41:09.203Z,101448.16
2022-10-13T11:43:50.280Z,101448.81
2022-10-13T11:46:36.395Z,101451.41
2022-10-13T11:49:05.887Z,101447.13
2022-10-13T11:52:09.800Z,101445.91
2022-10-13T11:54:47.379Z,101438.22
2022-10-13T11:57:25.605Z,101442.50
2022-10-13T11:59:55.862Z,101440.72
2022-10-13T12:02:25.686Z,101448.84
2022-10-13T12:05:00.374Z,101442.03
2022-10-13T12:07:33.249Z,101444.41
2022-10-13T12:10:00.184Z,101436.91
2022-10-13T12:12:26.777Z,101438.97
2022-10-13T12:14:55.777Z,101431.91
2022-10-13T12:17:31.751Z,101437.56
2022-10-13T12:20:18.049Z,101439.91
2022-10-13T12:22:52.937Z,101441.81
2022-10-13T12:25:24.376Z,101434.91
2022-10-13T12:27:55.333Z,101434.63
2022-10-13T12:30:37.232Z,101425.09
2022-10-13T12:33:18.041Z,101415.91
2022-10-13T12:35:44.610Z,101419.72
2022-10-13T12:38:19.809Z,101418.88
2022-10-13T12:40:49.122Z,101420.19
2022-10-13T12:43:25.177Z,101418.50
2022-10-13T12:45:52.093Z,101415.59
2022-10-13T12:48:33.407Z,101407.31
2022-10-13T12:51:24.547Z,101396.28
2022-10-13T12:53:51.325Z,101393.84
2022-10-13T12:56:26.465Z,101391.66
2022-10-13T12:58:53.427Z,101399.28
2022-10-13T13:01:32.910Z,101392.59
2022-10-13T13:04:21.442Z,101392.41
2022-10-13T13:06:57.162Z,101388.38
2022-10-13T13:09:27.489Z,101389.69
2022-10-13T13:12:12.274Z,101395.22
2022-10-13T13:14:49.826Z,101395.25
2022-10-13T13:17:33.001Z,101406.56
2022-10-13T13:20:20.774Z,101403.00
2022-10-13T13:22:47.631Z,101399.78
2022-10-13T13:25:15.625Z,101399.06
2022-10-13T13:27:42.418Z,101395.50
2022-10-13T13:30:13.696Z,101398.75
2022-10-13T13:32:40.655Z,101391.25
2022-10-13T13:35:07.719Z,101397.56
2022-10-13T13:37:38.852Z,101397.25
2022-10-13T13:40:07.546Z,101393.56
2022-10-13T13:42:34.142Z,101388.72
2022-10-13T13:45:00.712Z,101382.34
2022-10-13T13:47:28.598Z,101384.97
2022-10-13T13:49:56.495Z,101376.19
2022-10-13T13:52:24.199Z,101381.06
2022-10-13T13:54:52.034Z,101388.16
2022-10-13T13:57:19.608Z,101384.13
2022-10-13T13:59:46.547Z,101379.47
2022-10-13T14:02:20.545Z,101377.75
2022-10-13T14:04:47.190Z,101388.34
2022-10-13T14:07:14.245Z,101379.47
2022-10-13T14:09:40.842Z,101378.25
2022-10-13T14:12:07.538Z,101382.50
2022-10-13T14:14:34.304Z,101371.19
2022-10-13T14:17:01.845Z,101367.78
2022-10-13T14:19:28.591Z,101372.84
2022-10-13T14:21:55.177Z,101364.94
2022-10-13T14:24:21.732Z,101359.66
2022-10-13T14:26:48.319Z,101362.78
2022-10-13T14:29:16.902Z,101365.13
2022-10-13T14:31:43.502Z,101365.75
2022-10-13T14:34:10.404Z,101362.03
2022-10-13T14:36:37.048Z,101363.53
2022-10-13T14:39:03.897Z,101368.28
2022-10-13T14:41:30.509Z,101361.31
2022-10-13T14:43:57.569Z,101366.72
2022-10-13T14:46:25.501Z,101366.78
2022-10-13T14:48:52.154Z,101368.41
2022-10-13T14:51:18.824Z,101366.03
2022-10-13T14:53:45.729Z,101365.88
2022-10-13T14:56:23.817Z,101360.03
2022-10-13T14:58:53.025Z,101361.78
2022-10-13T15:01:20.700Z,101355.91
2022-10-13T15:03:47.988Z,101353.66
2022-10-13T15:06:17.148Z,101344.22
2022-10-13T15:08:44.979Z,101349.72
2022-10-13T15:11:12.486Z,101348.75
2022-10-13T15:13:39.359Z,101352.38
2022-10-13T15:16:07.158Z,101350.34
2022-10-13T15:18:36.220Z,101346.97
2022-10-13T15:21:02.861Z,101344.09
2022-10-13T15:23:29.431Z,101345.13
2022-10-13T15:25:58.187Z,101347.91
2022-10-13T15:28:27.455Z,101343.50
2022-10-13T15:30:54.455Z,101343.56
2022-10-13T15:33:21.366Z,101340.72
2022-10-13T15:35:49.748Z,101339.88
2022-10-13T15:38:17.264Z,101341.66
2022-10-13T15:40:44.275Z,101347.44
2022-10-13T15:43:10.979Z,101343.53
2022-10-13T15:45:37.849Z,101346.88
2022-10-13T15:48:08.661Z,101345.88
2022-10-13T15:50:39.676Z,101330.19
2022-10-13T15:53:07.002Z,101337.94
2022-10-13T15:55:33.847Z,101334.94
2022-10-13T15:58:00.674Z,101337.47
2022-10-13T16:00:27.475Z,101342.03
2022-10-13T16:02:54.172Z,101335.03
2022-10-13T16:05:20.774Z,101340.13
2022-10-13T16:07:47.779Z,101344.38
2022-10-13T16:10:15.406Z,101343.34
2022-10-13T16:12:46.956Z,101338.91
2022-10-13T16:15:15.095Z,101341.72
2022-10-13T16:17:41.872Z,101337.81
2022-10-13T16:20:09.228Z,101336.41
2022-10-13T16:22:35.851Z,101338.28
2022-10-13T16:25:02.527Z,101333.72
2022-10-13T16:27:29.287Z,101334.69
2022-10-13T16:29:56.427Z,101335.97
2022-10-13T16:32:23.212Z,101343.44
2022-10-13T16:34:50.056Z,101341.41
2022-10-13T16:37:16.669Z,101340.41
2022-10-13T16:39:46.483Z,101353.09
2022-10-13T16:42:15.691Z,101342.44
2022-10-13T16:44:42.265Z,101350.56
2022-10-13T16:47:08.870Z,101341.59
2022-10-13T16:49:35.756Z,101347.19
2022-10-13T16:52:02.505Z,101343.16
2022-10-13T16:54:29.264Z,101336.06
2022-10-13T16:56:55.997Z,101349.59
2022-10-13T16:59:22.550Z,101348.41
2022-10-13T17:01:49.152Z,101340.16
2022-10-13T17:04:21.167Z,101337.44
2022-10-13T17:06:48.642Z,101340.81
2022-10-13T17:09:15.224Z,101335.94
2022-10-13T17:11:42.944Z,101333.59
2022-10-13T17:14:09.899Z,101344.06
2022-10-13T17:16:36.856Z,101339.88
2022-10-13T17:19:03.605Z,101338.16
2022-10-13T17:21:30.344Z,101340.72
2022-10-13T17:23:57.410Z,101338.00
2022-10-13T17:26:24.331Z,101335.44
2022-10-13T17:28:51.045Z,101342.91
2022-10-13T17:31:20.792Z,101346.38
2022-10-13T17:33:48.738Z,101355.31
2022-10-13T17:36:18.043Z,101356.81
2022-10-13T17:38:45.121Z,101346.00
2022-10-13T17:41:12.370Z,101344.97
2022-10-13T17:43:40.525Z,101350.09
2022-10-13T17:49:07.560Z,101349.41
2022-10-13T17:51:34.238Z,101351.78
2022-10-13T17:54:01.410Z,101351.78
2022-10-13T17:56:28.423Z,101352.81
2022-10-13T17:58:55.309Z,101345.03
2022-10-13T18:01:28.892Z,101336.72
2022-10-13T18:04:01.087Z,101340.94
2022-10-13T18:06:32.588Z,101337.22
2022-10-13T18:09:05.699Z,101335.88
2022-10-13T18:11:32.309Z,101331.16
2022-10-13T18:13:58.900Z,101332.50
2022-10-13T18:16:25.461Z,101336.72
2022-10-13T18:18:54.069Z,101332.19
2022-10-13T18:21:23.180Z,101332.19
2022-10-13T18:23:50.084Z,101331.31
2022-10-13T18:26:18.743Z,101343.34
2022-10-13T18:28:46.641Z,101345.88
2022-10-13T18:31:35.608Z,101341.66
2022-10-13T18:34:05.100Z,101341.84
2022-10-13T18:36:36.783Z,101331.84
2022-10-13T18:39:14.085Z,101342.50
2022-10-13T18:41:41.870Z,101336.25
2022-10-13T18:44:08.786Z,101325.78
2022-10-13T18:46:37.481Z,101328.13
2022-10-13T18:49:08.620Z,101326.06
2022-10-13T18:51:36.506Z,101326.63
2022-10-13T18:54:04.689Z,101324.13
2022-10-13T18:56:33.079Z,101322.44
2022-10-13T18:59:01.772Z,101327.47
2022-10-13T19:01:30.930Z,101324.13
2022-10-13T19:03:58.026Z,101327.47
2022-10-13T19:06:27.021Z,101313.47
2022-10-13T19:09:00.843Z,101313.28
2022-10-13T19:11:28.866Z,101318.31
2022-10-13T19:13:55.720Z,101309.19
2022-10-13T19:16:23.748Z,101308.72
2022-10-13T19:18:50.664Z,101304.16
2022-10-13T19:21:18.433Z,101305.81
2022-10-13T19:23:45.079Z,101307.97
2022-10-13T19:26:15.457Z,101308.91
2022-10-13T19:28:42.825Z,101308.91
2022-10-13T19:31:14.464Z,101308.25
2022-10-13T19:33:44.739Z,101308.72
2022-10-13T19:36:19.873Z,101308.06
2022-10-13T19:38:46.436Z,101311.59
2022-10-13T19:41:12.993Z,101306.84
2022-10-13T19:43:39.575Z,101308.53
2022-10-13T19:46:07.396Z,101305.81
2022-10-13T19:48:34.114Z,101307.03
2022-10-13T19:51:01.604Z,101312.25
2022-10-13T19:53:28.215Z,101304.97
2022-10-13T19:55:54.769Z,101305.16
2022-10-13T19:58:21.447Z,101304.16
2022-10-13T20:00:49.790Z,101305.81
2022-10-13T20:03:16.543Z,101304.31
2022-10-13T20:05:43.520Z,101299.75
2022-10-13T20:08:11.840Z,101298.91
2022-10-13T20:10:42.946Z,101300.59
2022-10-13T20:13:10.853Z,101304.16
2022-10-13T20:15:42.481Z,101302.28
2022-10-13T20:18:12.819Z,101298.06
2022-10-13T20:20:40.721Z,101303.50
2022-10-13T20:23:07.857Z,101300.97
2022-10-13T20:25:38.202Z,101300.78
2022-10-13T20:28:05.855Z,101291.63
2022-10-13T20:30:33.363Z,101293.69
2022-10-13T20:33:00.082Z,101295.56
2022-10-13T20:35:26.721Z,101304.16
2022-10-13T20:37:53.289Z,101297.88
2022-10-13T20:40:19.877Z,101299.19
2022-10-13T20:42:51.688Z,101299.19
2022-10-13T20:45:18.684Z,101298.91
2022-10-13T20:47:46.767Z,101295.00
2022-10-13T20:50:13.329Z,101296.50
2022-10-13T20:52:39.871Z,101293.13
2022-10-13T20:55:06.601Z,101295.66
2022-10-13T20:57:33.157Z,101288.56
2022-10-13T20:59:59.766Z,101288.94
2022-10-13T21:02:26.331Z,101296.22
2022-10-13T21:04:53.012Z,101301.63
2022-10-13T21:07:19.823Z,101299.75
2022-10-13T21:09:50.192Z,101296.03
2022-10-13T21:12:19.397Z,101301.44
2022-10-13T21:14:46.023Z,101296.03
2022-10-13T21:17:12.582Z,101297.41
2022-10-13T21:19:39.182Z,101298.06
2022-10-13T21:22:05.738Z,101296.41
2022-10-13T21:24:32.455Z,101293.69
2022-10-13T21:26:59.020Z,101286.75
2022-10-13T21:29:25.697Z,101291.31
2022-10-13T21:31:52.616Z,101290.66
2022-10-13T21:34:19.209Z,101297.75
2022-10-13T21:36:46.062Z,101293.38
2022-10-13T21:39:12.736Z,101292.53
2022-10-13T21:41:39.307Z,101297.75
2022-10-13T21:44:05.969Z,101293.56
2022-10-13T21:46:34.602Z,101291.03
2022-10-13T21:49:04.412Z,101289.34
2022-10-13T21:51:36.691Z,101291.50
2022-10-13T21:54:13.377Z,101290.66
2022-10-13T21:56:41.079Z,101296.06
2022-10-13T21:59:09.830Z,101298.78
2022-10-13T22:01:36.415Z,101295.06
2022-10-13T22:04:03.341Z,101293.38
2022-10-13T22:06:32.127Z,101298.41
2022-10-13T22:09:00.584Z,101297.75
2022-10-13T22:11:30.273Z,101302.16
2022-10-13T22:13:57.705Z,101299.63
2022-10-13T22:16:29.983Z,101294.22
2022-10-13T22:18:57.990Z,101296.06
2022-10-13T22:21:27.968Z,101291.69
2022-10-13T22:23:59.824Z,101293.38
2022-10-13T22:26:28.574Z,101291.41
2022-10-13T22:28:57.235Z,101294.59
2022-10-13T22:31:23.953Z,101287.19
2022-10-13T22:33:53.631Z,101289.34
2022-10-13T22:36:23.010Z,101288.69
2022-10-13T22:38:51.650Z,101278.91
2022-10-13T22:41:19.719Z,101281.44
2022-10-13T22:43:50.797Z,101282.25
2022-10-13T22:46:19.418Z,101279.38
2022-10-13T22:48:46.092Z,101282.63
2022-10-13T22:51:16.360Z,101282.44
2022-10-13T22:53:43.715Z,101278.91
2022-10-13T22:56:13.346Z,101281.75
2022-10-13T22:58:40.511Z,101273.84
2022-10-13T23:01:10.080Z,101278.91
2022-10-13T23:03:37.489Z,101279.94
2022-10-13T23:06:06.756Z,101280.41
2022-10-13T23:08:33.884Z,101278.22
2022-10-13T23:11:00.998Z,101284.31
2022-10-13T23:13:27.555Z,101279.75
2022-10-13T23:15:54.206Z,101279.94
2022-10-13T23:18:20.770Z,101279.94
2022-10-13T23:20:47.348Z,101276.19
2022-10-13T23:23:13.918Z,101282.63
2022-10-13T23:25:40.489Z,101283.28
2022-10-13T23:28:07.060Z,101276.19
2022-10-13T23:30:33.674Z,101285.63
2022-10-13T23:33:00.248Z,101282.44
2022-10-13T23:35:26.810Z,101276.84
2022-10-13T23:37:53.470Z,101270.59
2022-10-13T23:40:20.100Z,101273.31
2022-10-13T23:42:46.677Z,101276.84
2022-10-13T23:45:13.368Z,101276.84
2022-10-13T23:47:40.033Z,101278.53
2022-10-13T23:50:06.950Z,101273.97
2022-10-13T23:52:33.527Z,101268.56
2022-10-13T23:55:00.318Z,101266.88
2022-10-13T23:57:28.827Z,101263.13
2022-10-13T23:59:55.405Z,101262.97
